sensor_id;sensor_type;location;lat;lon;timestamp;pressure;altitude;pressure_sealevel;temperature;humidity
63395;BME280;49531;-34.520;150.798;2023-05-20T00:02:19;100616.19;;;17.37;44.18
63395;BME280;49531;-34.520;150.798;2023-05-20T00:04:47;100603.50;;;17.38;44.11
63395;BME280;49531;-34.520;150.798;2023-05-20T00:07:14;100607.22;;;17.48;43.97
63395;BME280;49531;-34.520;150.798;2023-05-20T00:09:41;100597.47;;;17.47;44.15
63395;BME280;49531;-34.520;150.798;2023-05-20T00:12:08;100609.56;;;17.61;43.71
63395;BME280;49531;-34.520;150.798;2023-05-20T00:14:35;100596.66;;;17.63;43.83
63395;BME280;49531;-34.520;150.798;2023-05-20T00:17:02;100602.75;;;17.71;43.69
63395;BME280;49531;-34.520;150.798;2023-05-20T00:19:29;100605.78;;;17.74;43.60
63395;BME280;49531;-34.520;150.798;2023-05-20T00:21:57;100609.63;;;17.78;43.44
63395;BME280;49531;-34.520;150.798;2023-05-20T00:24:24;100597.28;;;17.82;43.24
63395;BME280;49531;-34.520;150.798;2023-05-20T00:26:52;100589.19;;;17.82;43.42
63395;BME280;49531;-34.520;150.798;2023-05-20T00:29:21;100597.94;;;17.89;43.53
63395;BME280;49531;-34.520;150.798;2023-05-20T00:31:48;100592.63;;;17.94;43.46
63395;BME280;49531;-34.520;150.798;2023-05-20T00:34:15;100592.13;;;17.97;43.01
63395;BME280;49531;-34.520;150.798;2023-05-20T00:36:42;100580.81;;;18.00;42.94
63395;BME280;49531;-34.520;150.798;2023-05-20T00:39:09;100584.16;;;18.08;43.12
63395;BME280;49531;-34.520;150.798;2023-05-20T00:41:36;100582.28;;;18.08;43.06
63395;BME280;49531;-34.520;150.798;2023-05-20T00:44:04;100584.25;;;18.13;43.05
63395;BME280;49531;-34.520;150.798;2023-05-20T00:46:31;100585.38;;;18.17;43.00
63395;BME280;49531;-34.520;150.798;2023-05-20T00:48:59;100578.41;;;18.21;42.86
63395;BME280;49531;-34.520;150.798;2023-05-20T00:51:26;100570.31;;;18.21;42.75
63395;BME280;49531;-34.520;150.798;2023-05-20T00:53:55;100562.44;;;18.19;42.83
63395;BME280;49531;-34.520;150.798;2023-05-20T00:56:22;100564.22;;;18.30;43.01
63395;BME280;49531;-34.520;150.798;2023-05-20T00:58:50;100559.31;;;18.27;42.81
63395;BME280;49531;-34.520;150.798;2023-05-20T01:01:17;100548.00;;;18.30;42.63
63395;BME280;49531;-34.520;150.798;2023-05-20T01:03:45;100555.94;;;18.37;42.62
63395;BME280;49531;-34.520;150.798;2023-05-20T01:06:13;100550.56;;;18.42;42.79
63395;BME280;49531;-34.520;150.798;2023-05-20T01:08:41;100538.66;;;18.38;42.78
63395;BME280;49531;-34.520;150.798;2023-05-20T01:11:15;100532.72;;;18.41;42.73
63395;BME280;49531;-34.520;150.798;2023-05-20T01:13:46;100512.44;;;18.39;42.64
63395;BME280;49531;-34.520;150.798;2023-05-20T01:16:17;100537.75;;;18.54;42.73
63395;BME280;49531;-34.520;150.798;2023-05-20T01:18:46;100527.44;;;18.51;42.80
63395;BME280;49531;-34.520;150.798;2023-05-20T01:21:14;100519.91;;;18.53;42.70
63395;BME280;49531;-34.520;150.798;2023-05-20T01:23:43;100523.50;;;18.59;42.72
63395;BME280;49531;-34.520;150.798;2023-05-20T01:26:10;100493.03;;;18.47;42.55
63395;BME280;49531;-34.520;150.798;2023-05-20T01:28:39;100504.34;;;18.60;42.46
63395;BME280;49531;-34.520;150.798;2023-05-20T01:31:22;100483.41;;;18.56;42.21
63395;BME280;49531;-34.520;150.798;2023-05-20T01:33:54;100498.47;;;18.69;42.13
63395;BME280;49531;-34.520;150.798;2023-05-20T01:36:23;100498.53;;;18.74;42.25
63395;BME280;49531;-34.520;150.798;2023-05-20T01:38:53;100488.53;;;18.74;42.22
63395;BME280;49531;-34.520;150.798;2023-05-20T01:41:23;100485.53;;;18.71;42.18
63395;BME280;49531;-34.520;150.798;2023-05-20T01:43:54;100464.94;;;18.70;42.38
63395;BME280;49531;-34.520;150.798;2023-05-20T01:46:21;100462.25;;;18.70;42.21
63395;BME280;49531;-34.520;150.798;2023-05-20T01:48:48;100474.78;;;18.81;42.26
63395;BME280;49531;-34.520;150.798;2023-05-20T01:51:16;100458.84;;;18.79;41.89
63395;BME280;49531;-34.520;150.798;2023-05-20T01:53:43;100440.69;;;18.80;42.04
63395;BME280;49531;-34.520;150.798;2023-05-20T01:56:10;100454.56;;;18.88;41.81
63395;BME280;49531;-34.520;150.798;2023-05-20T01:58:37;100458.41;;;18.92;41.43
63395;BME280;49531;-34.520;150.798;2023-05-20T02:01:04;100452.16;;;18.92;41.78
63395;BME280;49531;-34.520;150.798;2023-05-20T02:03:32;100460.28;;;18.92;41.73
63395;BME280;49531;-34.520;150.798;2023-05-20T02:05:59;100452.69;;;18.89;41.58
63395;BME280;49531;-34.520;150.798;2023-05-20T02:08:26;100446.75;;;18.92;41.58
63395;BME280;49531;-34.520;150.798;2023-05-20T02:10:53;100444.34;;;18.95;41.79
63395;BME280;49531;-34.520;150.798;2023-05-20T02:13:20;100444.34;;;18.95;41.59
63395;BME280;49531;-34.520;150.798;2023-05-20T02:15:47;100435.13;;;18.91;41.38
63395;BME280;49531;-34.520;150.798;2023-05-20T02:18:14;100434.88;;;18.93;41.47
63395;BME280;49531;-34.520;150.798;2023-05-20T02:20:46;100433.84;;;18.99;41.26
63395;BME280;49531;-34.520;150.798;2023-05-20T02:23:13;100439.25;;;18.99;41.44
63395;BME280;49531;-34.520;150.798;2023-05-20T02:25:41;100438.44;;;18.98;41.09
63395;BME280;49531;-34.520;150.798;2023-05-20T02:28:09;100422.72;;;18.95;41.14
63395;BME280;49531;-34.520;150.798;2023-05-20T02:30:37;100432.75;;;19.00;40.94
63395;BME280;49531;-34.520;150.798;2023-05-20T02:33:04;100427.09;;;19.02;40.94
63395;BME280;49531;-34.520;150.798;2023-05-20T02:35:32;100418.16;;;19.01;40.65
63395;BME280;49531;-34.520;150.798;2023-05-20T02:37:59;100405.91;;;18.93;40.56
63395;BME280;49531;-34.520;150.798;2023-05-20T02:40:26;100421.69;;;19.02;40.65
63395;BME280;49531;-34.520;150.798;2023-05-20T02:42:53;100391.81;;;18.91;40.79
63395;BME280;49531;-34.520;150.798;2023-05-20T02:45:20;100410.81;;;18.96;40.79
63395;BME280;49531;-34.520;150.798;2023-05-20T02:47:48;100411.66;;;19.02;40.73
63395;BME280;49531;-34.520;150.798;2023-05-20T02:50:15;100403.19;;;18.93;40.83
63395;BME280;49531;-34.520;150.798;2023-05-20T02:52:42;100410.66;;;19.08;40.30
63395;BME280;49531;-34.520;150.798;2023-05-20T02:55:11;100389.72;;;18.98;40.20
63395;BME280;49531;-34.520;150.798;2023-05-20T02:57:38;100394.91;;;19.05;40.50
63395;BME280;49531;-34.520;150.798;2023-05-20T03:00:07;100396.50;;;19.01;40.17
63395;BME280;49531;-34.520;150.798;2023-05-20T03:02:38;100384.91;;;19.06;40.11
63395;BME280;49531;-34.520;150.798;2023-05-20T03:05:06;100383.53;;;19.03;40.11
63395;BME280;49531;-34.520;150.798;2023-05-20T03:07:34;100385.16;;;19.04;40.29
63395;BME280;49531;-34.520;150.798;2023-05-20T03:10:02;100380.56;;;19.05;40.12
63395;BME280;49531;-34.520;150.798;2023-05-20T03:12:30;100386.78;;;19.05;40.17
63395;BME280;49531;-34.520;150.798;2023-05-20T03:14:57;100374.34;;;19.04;39.94
63395;BME280;49531;-34.520;150.798;2023-05-20T03:17:25;100371.69;;;19.09;40.09
63395;BME280;49531;-34.520;150.798;2023-05-20T03:19:52;100360.25;;;19.02;40.17
63395;BME280;49531;-34.520;150.798;2023-05-20T03:22:19;100362.97;;;19.02;40.30
63395;BME280;49531;-34.520;150.798;2023-05-20T03:24:47;100366.47;;;19.03;39.99
63395;BME280;49531;-34.520;150.798;2023-05-20T03:27:14;100371.06;;;19.02;40.12
63395;BME280;49531;-34.520;150.798;2023-05-20T03:29:41;100362.34;;;18.95;39.99
63395;BME280;49531;-34.520;150.798;2023-05-20T03:32:08;100364.84;;;19.02;39.18
63395;BME280;49531;-34.520;150.798;2023-05-20T03:34:36;100366.22;;;19.04;39.26
63395;BME280;49531;-34.520;150.798;2023-05-20T03:37:03;100374.59;;;19.03;39.58
63395;BME280;49531;-34.520;150.798;2023-05-20T03:39:31;100372.97;;;19.02;39.57
63395;BME280;49531;-34.520;150.798;2023-05-20T03:41:58;100368.31;;;18.97;39.13
63395;BME280;49531;-34.520;150.798;2023-05-20T03:44:25;100362.34;;;18.95;39.55
63395;BME280;49531;-34.520;150.798;2023-05-20T03:46:52;100369.31;;;18.86;39.65
63395;BME280;49531;-34.520;150.798;2023-05-20T03:49:19;100362.34;;;18.95;39.64
63395;BME280;49531;-34.520;150.798;2023-05-20T03:51:46;100360.47;;;18.95;39.37
63395;BME280;49531;-34.520;150.798;2023-05-20T03:54:14;100369.97;;;18.98;39.66
63395;BME280;49531;-34.520;150.798;2023-05-20T03:56:42;100382.19;;;19.06;39.62
63395;BME280;49531;-34.520;150.798;2023-05-20T03:59:12;100378.16;;;19.08;38.88
63395;BME280;49531;-34.520;150.798;2023-05-20T04:01:39;100380.34;;;19.11;39.42
63395;BME280;49531;-34.520;150.798;2023-05-20T04:04:06;100369.78;;;19.10;38.93
63395;BME280;49531;-34.520;150.798;2023-05-20T04:06:33;100371.72;;;19.14;39.09
63395;BME280;49531;-34.520;150.798;2023-05-20T04:09:01;100364.94;;;19.12;39.26
63395;BME280;49531;-34.520;150.798;2023-05-20T04:11:29;100366.88;;;19.16;39.28
63395;BME280;49531;-34.520;150.798;2023-05-20T04:13:56;100347.38;;;19.19;38.74
63395;BME280;49531;-34.520;150.798;2023-05-20T04:16:25;100343.78;;;19.09;39.13
63395;BME280;49531;-34.520;150.798;2023-05-20T04:18:52;100369.44;;;19.38;39.09
63395;BME280;49531;-34.520;150.798;2023-05-20T04:21:19;100373.25;;;19.42;38.90
63395;BME280;49531;-34.520;150.798;2023-05-20T04:23:46;100369.16;;;19.40;39.15
63395;BME280;49531;-34.520;150.798;2023-05-20T04:26:13;100372.44;;;19.42;39.30
63395;BME280;49531;-34.520;150.798;2023-05-20T04:28:41;100376.50;;;19.44;39.45
63395;BME280;49531;-34.520;150.798;2023-05-20T04:31:08;100364.84;;;19.39;39.28
63395;BME280;49531;-34.520;150.798;2023-05-20T04:33:36;100359.47;;;19.49;39.34
63395;BME280;49531;-34.520;150.798;2023-05-20T04:36:05;100364.63;;;19.50;38.92
63395;BME280;49531;-34.520;150.798;2023-05-20T04:38:32;100361.69;;;19.52;39.05
63395;BME280;49531;-34.520;150.798;2023-05-20T04:41:01;100380.13;;;19.55;39.18
63395;BME280;49531;-34.520;150.798;2023-05-20T04:43:29;100377.38;;;19.50;39.12
63395;BME280;49531;-34.520;150.798;2023-05-20T04:45:57;100371.47;;;19.53;38.57
63395;BME280;49531;-34.520;150.798;2023-05-20T04:48:26;100360.09;;;19.56;38.88
63395;BME280;49531;-34.520;150.798;2023-05-20T04:50:54;100363.38;;;19.58;38.97
63395;BME280;49531;-34.520;150.798;2023-05-20T04:53:21;100366.59;;;19.60;38.78
63395;BME280;49531;-34.520;150.798;2023-05-20T04:55:48;100366.06;;;19.58;38.88
63395;BME280;49531;-34.520;150.798;2023-05-20T04:58:19;100361.19;;;19.60;39.08
63395;BME280;49531;-34.520;150.798;2023-05-20T05:00:50;100365.00;;;19.59;39.00
63395;BME280;49531;-34.520;150.798;2023-05-20T05:03:17;100375.31;;;19.67;38.74
63395;BME280;49531;-34.520;150.798;2023-05-20T05:05:44;100369.88;;;19.67;38.66
63395;BME280;49531;-34.520;150.798;2023-05-20T05:08:12;100370.44;;;19.69;38.73
63395;BME280;49531;-34.520;150.798;2023-05-20T05:10:39;100379.13;;;19.71;38.71
63395;BME280;49531;-34.520;150.798;2023-05-20T05:13:06;100372.34;;;19.69;38.78
63395;BME280;49531;-34.520;150.798;2023-05-20T05:15:34;100382.91;;;19.70;38.73
63395;BME280;49531;-34.520;150.798;2023-05-20T05:18:01;100382.91;;;19.70;38.66
63395;BME280;49531;-34.520;150.798;2023-05-20T05:20:28;100371.25;;;19.70;38.25
63395;BME280;49531;-34.520;150.798;2023-05-20T05:22:55;100372.56;;;19.57;37.94
63395;BME280;49531;-34.520;150.798;2023-05-20T05:25:23;100388.84;;;19.67;38.56
63395;BME280;49531;-34.520;150.798;2023-05-20T05:27:50;100370.41;;;19.59;38.11
63395;BME280;49531;-34.520;150.798;2023-05-20T05:30:18;100372.00;;;19.60;37.92
63395;BME280;49531;-34.520;150.798;2023-05-20T05:32:47;100372.56;;;19.62;37.83
63395;BME280;49531;-34.520;150.798;2023-05-20T05:35:14;100381.53;;;19.68;38.09
63395;BME280;49531;-34.520;150.798;2023-05-20T05:37:41;100378.03;;;19.67;38.10
63395;BME280;49531;-34.520;150.798;2023-05-20T05:40:09;100394.81;;;19.69;37.84
63395;BME280;49531;-34.520;150.798;2023-05-20T05:42:36;100377.50;;;19.70;38.07
63395;BME280;49531;-34.520;150.798;2023-05-20T05:45:03;100390.50;;;19.68;38.03
63395;BME280;49531;-34.520;150.798;2023-05-20T05:47:31;100391.53;;;19.62;38.08
63395;BME280;49531;-34.520;150.798;2023-05-20T05:49:58;100398.03;;;19.61;38.09
63395;BME280;49531;-34.520;150.798;2023-05-20T05:52:26;100399.97;;;19.65;38.06
63395;BME280;49531;-34.520;150.798;2023-05-20T05:54:53;100405.38;;;19.65;38.12
63395;BME280;49531;-34.520;150.798;2023-05-20T05:57:20;100395.88;;;19.63;37.98
63395;BME280;49531;-34.520;150.798;2023-05-20T05:59:47;100397.50;;;19.59;37.91
63395;BME280;49531;-34.520;150.798;2023-05-20T06:02:14;100403.72;;;19.59;38.13
63395;BME280;49531;-34.520;150.798;2023-05-20T06:04:41;100417.00;;;19.61;38.26
63395;BME280;49531;-34.520;150.798;2023-05-20T06:07:09;100399.66;;;19.57;38.10
63395;BME280;49531;-34.520;150.798;2023-05-20T06:09:37;100407.53;;;19.58;37.94
63395;BME280;49531;-34.520;150.798;2023-05-20T06:12:05;100399.66;;;19.57;38.07
63395;BME280;49531;-34.520;150.798;2023-05-20T06:14:32;100399.63;;;19.52;38.15
63395;BME280;49531;-34.520;150.798;2023-05-20T06:17:00;100409.94;;;19.55;37.61
63395;BME280;49531;-34.520;150.798;2023-05-20T06:19:28;100400.69;;;19.51;37.83
63395;BME280;49531;-34.520;150.798;2023-05-20T06:21:56;100419.97;;;19.54;37.86
63395;BME280;49531;-34.520;150.798;2023-05-20T06:24:24;100416.63;;;19.47;37.77
63395;BME280;49531;-34.520;150.798;2023-05-20T06:26:51;100416.88;;;19.46;38.09
63395;BME280;49531;-34.520;150.798;2023-05-20T06:29:18;100418.53;;;19.47;38.17
63395;BME280;49531;-34.520;150.798;2023-05-20T06:31:45;100420.09;;;19.43;38.24
63395;BME280;49531;-34.520;150.798;2023-05-20T06:34:12;100427.16;;;19.44;38.13
63395;BME280;49531;-34.520;150.798;2023-05-20T06:36:39;100429.06;;;19.43;38.37
63395;BME280;49531;-34.520;150.798;2023-05-20T06:39:06;100416.53;;;19.37;38.30
63395;BME280;49531;-34.520;150.798;2023-05-20T06:41:38;100426.56;;;19.37;38.38
63395;BME280;49531;-34.520;150.798;2023-05-20T06:44:06;100404.31;;;19.29;38.46
63395;BME280;49531;-34.520;150.798;2023-05-20T06:46:33;100417.56;;;19.31;38.56
63395;BME280;49531;-34.520;150.798;2023-05-20T06:49:00;100424.13;;;19.35;38.82
63395;BME280;49531;-34.520;150.798;2023-05-20T06:51:29;100424.94;;;19.36;38.61
63395;BME280;49531;-34.520;150.798;2023-05-20T06:53:56;100418.69;;;19.35;38.85
63395;BME280;49531;-34.520;150.798;2023-05-20T06:56:23;100428.72;;;19.35;38.83
63395;BME280;49531;-34.520;150.798;2023-05-20T06:58:50;100424.06;;;19.30;38.78
63395;BME280;49531;-34.520;150.798;2023-05-20T07:01:18;100430.59;;;19.34;38.90
63395;BME280;49531;-34.520;150.798;2023-05-20T07:03:45;100418.34;;;19.26;39.06
63395;BME280;49531;-34.520;150.798;2023-05-20T07:06:12;100431.38;;;19.29;38.92
63395;BME280;49531;-34.520;150.798;2023-05-20T07:08:39;100441.91;;;19.26;38.65
63395;BME280;49531;-34.520;150.798;2023-05-20T07:11:06;100435.16;;;19.28;38.65
63395;BME280;49531;-34.520;150.798;2023-05-20T07:13:33;100425.16;;;19.29;38.57
63395;BME280;49531;-34.520;150.798;2023-05-20T07:16:01;100428.63;;;19.24;38.53
63395;BME280;49531;-34.520;150.798;2023-05-20T07:18:28;100428.38;;;19.26;38.83
63395;BME280;49531;-34.520;150.798;2023-05-20T07:20:55;100425.66;;;19.26;38.98
63395;BME280;49531;-34.520;150.798;2023-05-20T07:23:23;100427.03;;;19.28;38.86
63395;BME280;49531;-34.520;150.798;2023-05-20T07:25:51;100430.00;;;19.27;38.40
63395;BME280;49531;-34.520;150.798;2023-05-20T07:28:20;100432.97;;;19.25;38.47
63395;BME280;49531;-34.520;150.798;2023-05-20T07:30:48;100425.88;;;19.19;37.90
63395;BME280;49531;-34.520;150.798;2023-05-20T07:33:16;100422.63;;;19.17;38.35
63395;BME280;49531;-34.520;150.798;2023-05-20T07:35:44;100429.94;;;19.17;38.37
63395;BME280;49531;-34.520;150.798;2023-05-20T07:38:11;100416.66;;;19.15;38.15
63395;BME280;49531;-34.520;150.798;2023-05-20T07:40:39;100423.66;;;19.11;38.55
63395;BME280;49531;-34.520;150.798;2023-05-20T07:43:07;100428.53;;;19.09;38.58
63395;BME280;49531;-34.520;150.798;2023-05-20T07:45:35;100412.84;;;19.11;37.62
63395;BME280;49531;-34.520;150.798;2023-05-20T07:48:03;100431.50;;;19.08;37.87
63395;BME280;49531;-34.520;150.798;2023-05-20T07:50:30;100424.47;;;19.12;37.92
63395;BME280;49531;-34.520;150.798;2023-05-20T07:52:57;100438.84;;;19.12;38.43
63395;BME280;49531;-34.520;150.798;2023-05-20T07:55:25;100435.25;;;19.07;38.14
63395;BME280;49531;-34.520;150.798;2023-05-20T07:57:52;100433.41;;;19.12;38.03
63395;BME280;49531;-34.520;150.798;2023-05-20T08:00:19;100455.34;;;19.11;38.23
63395;BME280;49531;-34.520;150.798;2023-05-20T08:02:47;100450.13;;;19.04;38.45
63395;BME280;49531;-34.520;150.798;2023-05-20T08:05:14;100464.53;;;19.10;38.04
63395;BME280;49531;-34.520;150.798;2023-05-20T08:07:41;100457.47;;;19.09;38.50
63395;BME280;49531;-34.520;150.798;2023-05-20T08:10:08;100475.06;;;19.06;38.33
63395;BME280;49531;-34.520;150.798;2023-05-20T08:12:36;100475.63;;;19.08;38.74
63395;BME280;49531;-34.520;150.798;2023-05-20T08:15:03;100490.47;;;19.06;38.63
63395;BME280;49531;-34.520;150.798;2023-05-20T08:17:32;100478.78;;;19.00;38.80
63395;BME280;49531;-34.520;150.798;2023-05-20T08:20:00;100482.50;;;18.94;38.88
63395;BME280;49531;-34.520;150.798;2023-05-20T08:22:27;100505.91;;;19.05;38.79
63395;BME280;49531;-34.520;150.798;2023-05-20T08:24:54;100512.94;;;19.06;39.15
63395;BME280;49531;-34.520;150.798;2023-05-20T08:27:22;100513.41;;;18.98;39.31
63395;BME280;49531;-34.520;150.798;2023-05-20T08:29:50;100519.88;;;18.97;39.25
63395;BME280;49531;-34.520;150.798;2023-05-20T08:32:17;100520.44;;;18.99;39.38
63395;BME280;49531;-34.520;150.798;2023-05-20T08:34:44;100510.38;;;18.94;38.95
63395;BME280;49531;-34.520;150.798;2023-05-20T08:37:11;100515.59;;;19.01;39.21
63395;BME280;49531;-34.520;150.798;2023-05-20T08:39:38;100509.94;;;19.03;39.31
63395;BME280;49531;-34.520;150.798;2023-05-20T08:42:05;100489.28;;;18.96;39.22
63395;BME280;49531;-34.520;150.798;2023-05-20T08:44:34;100476.78;;;18.90;38.94
63395;BME280;49531;-34.520;150.798;2023-05-20T08:47:02;100484.09;;;18.90;38.94
63395;BME280;49531;-34.520;150.798;2023-05-20T08:49:31;100491.56;;;18.83;39.08
63395;BME280;49531;-34.520;150.798;2023-05-20T08:52:00;100476.41;;;18.77;39.47
63395;BME280;49531;-34.520;150.798;2023-05-20T08:54:40;100461.38;;;18.64;39.17
63395;BME280;49531;-34.520;150.798;2023-05-20T08:57:09;100505.78;;;18.68;39.16
63395;BME280;49531;-34.520;150.798;2023-05-20T08:59:43;100513.91;;;18.68;39.30
63395;BME280;49531;-34.520;150.798;2023-05-20T09:02:12;100515.47;;;18.64;39.54
63395;BME280;49531;-34.520;150.798;2023-05-20T09:04:39;100523.00;;;18.62;39.47
63395;BME280;49531;-34.520;150.798;2023-05-20T09:07:07;100514.00;;;18.56;39.55
63395;BME280;49531;-34.520;150.798;2023-05-20T09:09:34;100525.47;;;18.63;39.80
63395;BME280;49531;-34.520;150.798;2023-05-20T09:12:02;100522.19;;;18.61;39.41
63395;BME280;49531;-34.520;150.798;2023-05-20T09:14:30;100520.06;;;18.63;39.71
63395;BME280;49531;-34.520;150.798;2023-05-20T09:16:58;100514.50;;;18.53;39.60
63395;BME280;49531;-34.520;150.798;2023-05-20T09:19:25;100520.72;;;18.54;39.97
63395;BME280;49531;-34.520;150.798;2023-05-20T09:21:53;100525.63;;;18.57;39.86
63395;BME280;49531;-34.520;150.798;2023-05-20T09:24:23;100515.63;;;18.57;39.77
63395;BME280;49531;-34.520;150.798;2023-05-20T09:26:51;100522.66;;;18.58;40.05
63395;BME280;49531;-34.520;150.798;2023-05-20T09:29:18;100525.47;;;18.63;39.94
63395;BME280;49531;-34.520;150.798;2023-05-20T09:31:48;100507.03;;;18.60;40.07
63395;BME280;49531;-34.520;150.798;2023-05-20T09:34:16;100515.97;;;18.61;40.17
63395;BME280;49531;-34.520;150.798;2023-05-20T09:36:44;100483.66;;;18.54;40.01
63395;BME280;49531;-34.520;150.798;2023-05-20T09:39:15;100466.31;;;18.50;40.26
63395;BME280;49531;-34.520;150.798;2023-05-20T09:41:51;100448.94;;;18.46;40.34
63395;BME280;49531;-34.520;150.798;2023-05-20T09:44:22;100463.03;;;18.48;40.22
63395;BME280;49531;-34.520;150.798;2023-05-20T09:46:50;100443.19;;;18.38;40.44
63395;BME280;49531;-34.520;150.798;2023-05-20T09:49:18;100435.78;;;18.28;40.64
63395;BME280;49531;-34.520;150.798;2023-05-20T09:51:47;100462.94;;;18.38;40.75
63395;BME280;49531;-34.520;150.798;2023-05-20T09:54:18;100469.91;;;18.34;40.58
63395;BME280;49531;-34.520;150.798;2023-05-20T09:56:46;100471.00;;;18.33;40.77
63395;BME280;49531;-34.520;150.798;2023-05-20T09:59:15;100471.59;;;18.40;40.67
63395;BME280;49531;-34.520;150.798;2023-05-20T10:01:43;100460.19;;;18.33;40.84
63395;BME280;49531;-34.520;150.798;2023-05-20T10:04:12;100476.97;;;18.35;40.87
63395;BME280;49531;-34.520;150.798;2023-05-20T10:09:53;100481.31;;;18.36;40.77
63395;BME280;49531;-34.520;150.798;2023-05-20T10:12:37;100480.75;;;18.34;40.91
63395;BME280;49531;-34.520;150.798;2023-05-20T10:15:22;100468.84;;;18.35;40.80
63395;BME280;49531;-34.520;150.798;2023-05-20T10:18:08;100474.50;;;18.33;40.77
63395;BME280;49531;-34.520;150.798;2023-05-20T10:20:46;100465.44;;;18.23;40.82
63395;BME280;49531;-34.520;150.798;2023-05-20T10:23:23;100459.78;;;18.24;41.04
63395;BME280;49531;-34.520;150.798;2023-05-20T10:25:55;100476.00;;;18.24;40.93
63395;BME280;49531;-34.520;150.798;2023-05-20T10:28:29;100458.91;;;18.19;40.99
63395;BME280;49531;-34.520;150.798;2023-05-20T10:30:58;100464.31;;;18.19;41.01
63395;BME280;49531;-34.520;150.798;2023-05-20T10:33:26;100458.09;;;18.18;40.90
63395;BME280;49531;-34.520;150.798;2023-05-20T10:35:58;100445.38;;;18.19;41.29
63395;BME280;49531;-34.520;150.798;2023-05-20T10:38:25;100433.38;;;18.10;41.47
63395;BME280;49531;-34.520;150.798;2023-05-20T10:40:52;100448.53;;;18.11;41.35
63395;BME280;49531;-34.520;150.798;2023-05-20T10:43:26;100448.47;;;18.06;41.59
63395;BME280;49531;-34.520;150.798;2023-05-20T10:45:55;100460.16;;;18.11;41.56
63395;BME280;49531;-34.520;150.798;2023-05-20T10:48:26;100458.94;;;18.02;41.72
63395;BME280;49531;-34.520;150.798;2023-05-20T10:50:55;100471.59;;;17.96;41.88
63395;BME280;49531;-34.520;150.798;2023-05-20T10:53:24;100488.38;;;17.98;41.78
63395;BME280;49531;-34.520;150.798;2023-05-20T10:55:52;100490.75;;;17.95;41.96
63395;BME280;49531;-34.520;150.798;2023-05-20T10:58:22;100489.88;;;17.89;42.12
63395;BME280;49531;-34.520;150.798;2023-05-20T11:00:53;100499.78;;;17.84;42.15
63395;BME280;49531;-34.520;150.798;2023-05-20T11:03:21;100506.31;;;17.88;42.18
63395;BME280;49531;-34.520;150.798;2023-05-20T11:05:49;100500.50;;;17.79;42.29
63395;BME280;49531;-34.520;150.798;2023-05-20T11:08:16;100510.59;;;17.84;42.43
63395;BME280;49531;-34.520;150.798;2023-05-20T11:10:43;100513.53;;;17.82;42.23
63395;BME280;49531;-34.520;150.798;2023-05-20T11:13:12;100512.72;;;17.82;42.33
63395;BME280;49531;-34.520;150.798;2023-05-20T11:15:41;100517.78;;;17.78;42.41
63395;BME280;49531;-34.520;150.798;2023-05-20T11:18:10;100512.88;;;17.75;42.43
63395;BME280;49531;-34.520;150.798;2023-05-20T11:20:39;100518.84;;;17.77;42.48
63395;BME280;49531;-34.520;150.798;2023-05-20T11:23:12;100500.94;;;17.71;42.34
63395;BME280;49531;-34.520;150.798;2023-05-20T11:25:39;100508.63;;;17.79;42.04
63395;BME280;49531;-34.520;150.798;2023-05-20T11:28:13;100490.44;;;17.75;42.38
63395;BME280;49531;-34.520;150.798;2023-05-20T11:30:41;100487.19;;;17.73;42.08
63395;BME280;49531;-34.520;150.798;2023-05-20T11:33:11;100487.66;;;17.70;42.20
63395;BME280;49531;-34.520;150.798;2023-05-20T11:35:48;100480.38;;;17.70;42.24
63395;BME280;49531;-34.520;150.798;2023-05-20T11:38:16;100487.91;;;17.68;42.34
63395;BME280;49531;-34.520;150.798;2023-05-20T11:40:44;100484.03;;;17.64;42.31
63395;BME280;49531;-34.520;150.798;2023-05-20T11:43:13;100472.84;;;17.55;42.37
63395;BME280;49531;-34.520;150.798;2023-05-20T11:45:42;100475.31;;;17.57;42.76
63395;BME280;49531;-34.520;150.798;2023-05-20T11:48:10;100488.97;;;17.50;42.80
63395;BME280;49531;-34.520;150.798;2023-05-20T11:50:39;100471.88;;;17.45;42.80
63395;BME280;49531;-34.520;150.798;2023-05-20T11:53:09;100478.25;;;17.55;42.63
63395;BME280;49531;-34.520;150.798;2023-05-20T11:55:45;100470.41;;;17.54;42.79
63395;BME280;49531;-34.520;150.798;2023-05-20T11:58:18;100475.22;;;17.52;42.99
63395;BME280;49531;-34.520;150.798;2023-05-20T12:00:46;100463.28;;;17.48;42.79
63395;BME280;49531;-34.520;150.798;2023-05-20T12:03:14;100467.53;;;17.44;42.94
63395;BME280;49531;-34.520;150.798;2023-05-20T12:05:42;100460.81;;;17.46;42.93
63395;BME280;49531;-34.520;150.798;2023-05-20T12:08:10;100477.34;;;17.50;42.74
63395;BME280;49531;-34.520;150.798;2023-05-20T12:10:37;100469.84;;;17.52;42.76
63395;BME280;49531;-34.520;150.798;2023-05-20T12:13:04;100454.84;;;17.44;42.71
63395;BME280;49531;-34.520;150.798;2023-05-20T12:15:36;100448.22;;;17.35;42.87
63395;BME280;49531;-34.520;150.798;2023-05-20T12:18:04;100453.88;;;17.33;42.86
63395;BME280;49531;-34.520;150.798;2023-05-20T12:20:31;100451.34;;;17.44;42.84
63395;BME280;49531;-34.520;150.798;2023-05-20T12:22:59;100450.28;;;17.45;42.65
63395;BME280;49531;-34.520;150.798;2023-05-20T12:25:27;100448.06;;;17.42;42.91
63395;BME280;49531;-34.520;150.798;2023-05-20T12:27:55;100440.13;;;17.35;42.86
63395;BME280;49531;-34.520;150.798;2023-05-20T12:30:23;100440.22;;;17.40;42.74